RWI weather

Rocky Mount Wilson Regional Airport
Rocky Mount, North Carolina, United States

Public forecast

Using degrees Fahrenheit for public forecast. Weather courtesy of forecast.io.

METAR (pilot weather report)

Retrieved 2019/09/19 10:53 UTC (35 minutes ago):

KRWI 191053Z AUTO 36006KT 10SM CLR 13/12 A3026 RMK AO2 SLP246 T01330122

TAF (pilot weather forecast)

Retrieved 2019/09/19 06:28 UTC (5 hours ago):

TAF KRWI 190525Z 1906/2006 05005KT P6SM SKC TEMPO 1913/1917 03009G16KT BKN035